Time;durP1;ratioP1;P1;durP2;ratioP2;P2;SDS_P1;SDS_P2;PMS_P1;PMS_P2;Temp;Humidity;BMP_temperature;BMP_pressure;BME280_temperature;BME280_humidity;BME280_pressure;Samples;Min_cycle;Max_cycle;Signal;HPM_P1;HPM_P2
2023/01/26 04:26:16;;;;;;;;;;;;;;;;;;;;;
2023/01/26 04:32:32;;;;;;;;;;;;;;;;;;;;;
2023/01/26 04:35:06;;;;;;;100.70;28.30;;;2.00;99.90;;;;;;5001309;23;20156;-96
2023/01/26 04:37:25;;;;;;;94.90;26.63;;;2.10;99.90;;;;;;4957740;23;20636;-94
2023/01/26 04:40:27;;;;;;;103.70;27.43;;;2.10;99.90;;;;;;4993467;23;20187;-94
2023/01/26 04:43:20;;;;;;;99.77;29.97;;;2.30;99.90;;;;;;4977658;23;20167;-95
2023/01/26 04:49:20;;;;;;;99.27;26.53;;;2.30;99.90;;;;;;4931522;24;20181;-94
2023/01/26 04:51:52;;;;;;;113.13;27.80;;;2.50;99.90;;;;;;4979252;23;20160;-94
2023/01/26 04:57:32;;;;;;;104.23;27.00;;;2.30;99.90;;;;;;4990255;23;20160;-94
2023/01/26 05:00:31;;;;;;;104.50;29.03;;;2.50;99.90;;;;;;4970086;23;20714;-95
2023/01/26 05:03:14;;;;;;;105.27;28.10;;;2.50;99.90;;;;;;4956928;23;20164;-94
2023/01/26 05:09:41;;;;;;;;;;;;;;;;;;;;;
2023/01/26 06:57:01;;;;;;;;;;;;;;;;;;;;;
2023/01/26 07:10:47;;;;;;;;;;;;;;;;;;;;;
2023/01/26 07:17:55;;;;;;;;;;;;;;;;;;;;;
2023/01/26 07:20:36;;;;;;;47.97;16.20;;;3.20;99.90;;;;;;4696723;25;20208;-94
2023/01/26 07:26:28;;;;;;;43.57;15.93;;;3.00;99.90;;;;;;4727686;25;20205;-93
2023/01/26 07:29:48;;;;;;;44.80;15.77;;;2.90;99.90;;;;;;4718250;25;20183;-93
2023/01/26 07:32:49;;;;;;;;;;;;;;;;;;;;;
2023/01/26 07:36:09;;;;;;;;;;;;;;;;;;;;;
2023/01/26 07:45:38;;;;;;;50.93;16.60;;;2.90;99.90;;;;;;4990898;23;20491;-94
2023/01/26 07:58:15;;;;;;;;;;;;;;;;;;;;;
2023/01/26 08:04:53;;;;;;;;;;;;;;;;;;;;;
2023/01/26 08:07:58;;;;;;;;;;;;;;;;;;;;;
2023/01/26 08:11:27;;;;;;;;;;;;;;;;;;;;;
2023/01/26 08:21:43;;;;;;;;;;;;;;;;;;;;;
2023/01/26 08:24:05;;;;;;;46.47;15.23;;;2.80;99.90;;;;;;4980575;23;20227;-94
2023/01/26 08:26:20;;;;;;;48.90;15.40;;;2.70;99.90;;;;;;4975782;23;20544;-92
2023/01/26 08:28:36;;;;;;;44.67;15.67;;;2.60;99.90;;;;;;4997193;23;20250;-94
2023/01/26 08:31:26;;;;;;;41.57;14.97;;;2.90;99.90;;;;;;4999652;23;20147;-95
2023/01/26 08:33:35;;;;;;;40.23;14.77;;;3.00;99.90;;;;;;4974005;23;20196;-94
2023/01/26 08:35:43;;;;;;;49.37;15.33;;;3.00;99.90;;;;;;5020782;23;20158;-92
2023/01/26 08:38:01;;;;;;;41.30;15.60;;;2.80;99.90;;;;;;5021153;23;20174;-95
2023/01/26 08:40:12;;;;;;;37.63;14.27;;;2.90;99.90;;;;;;4998750;23;20199;-93
2023/01/26 08:42:39;;;;;;;40.17;14.97;;;3.10;99.90;;;;;;4973954;23;20192;-93
2023/01/26 08:44:59;;;;;;;43.23;14.63;;;3.10;99.90;;;;;;5022342;23;20165;-92
2023/01/26 08:47:33;;;;;;;38.97;13.33;;;3.00;99.90;;;;;;5004461;23;20184;-93
2023/01/26 08:49:52;;;;;;;39.80;14.63;;;3.10;99.90;;;;;;5022055;23;20147;-94
2023/01/26 08:52:21;;;;;;;;;;;;;;;;;;;;;
2023/01/26 08:54:35;;;;;;;34.33;12.50;;;3.20;99.90;;;;;;5021704;23;20178;-93
2023/01/26 08:59:23;;;;;;;34.40;12.37;;;3.60;99.90;;;;;;4997389;23;20222;-94
2023/01/26 09:01:24;;;;;;;34.20;13.63;;;3.60;99.90;;;;;;4974121;23;20322;-93
2023/01/26 09:03:33;;;;;;;33.70;13.30;;;3.50;99.90;;;;;;4998294;23;20163;-92
2023/01/26 09:05:45;;;;;;;33.03;13.57;;;3.60;99.90;;;;;;4973709;23;20235;-93
2023/01/26 09:07:46;;;;;;;32.90;13.03;;;3.70;99.90;;;;;;4997114;23;20235;-93
2023/01/26 09:09:51;;;;;;;30.40;11.93;;;3.70;99.90;;;;;;4973527;23;20184;-93
2023/01/26 09:12:00;;;;;;;36.03;13.50;;;3.80;99.90;;;;;;5022527;23;20240;-93
2023/01/26 09:14:06;;;;;;;32.87;13.73;;;3.80;99.90;;;;;;4975738;23;20603;-94
2023/01/26 09:16:17;;;;;;;31.60;12.47;;;4.00;99.90;;;;;;4974418;23;20157;-93
2023/01/26 09:18:20;;;;;;;33.53;12.40;;;4.10;99.90;;;;;;4996836;23;20246;-93
2023/01/26 09:20:21;;;;;;;35.73;14.73;;;4.10;99.90;;;;;;4973540;23;20168;-94
2023/01/26 09:22:28;;;;;;;32.73;13.07;;;4.20;99.90;;;;;;4998618;23;20167;-94
2023/01/26 09:24:31;;;;;;;32.60;13.83;;;4.20;99.90;;;;;;4998528;23;20495;-94
2023/01/26 09:26:33;;;;;;;39.57;14.30;;;4.10;99.90;;;;;;5022963;23;20155;-94
2023/01/26 09:28:39;;;;;;;33.77;14.03;;;4.20;99.90;;;;;;4999930;23;20191;-92
2023/01/26 09:30:40;;;;;;;34.47;14.67;;;4.30;99.90;;;;;;4974865;23;20219;-93
2023/01/26 09:32:49;;;;;;;39.50;13.90;;;4.30;99.90;;;;;;5001414;23;20719;-94
2023/01/26 09:34:49;;;;;;;36.47;14.20;;;4.40;99.90;;;;;;5022615;23;20155;-93
2023/01/26 09:36:50;;;;;;;40.57;15.40;;;4.50;99.90;;;;;;4998248;23;20643;-93
2023/01/26 09:38:52;;;;;;;32.77;13.03;;;4.50;99.90;;;;;;5022282;23;20217;-93
2023/01/26 09:41:07;;;;;;;34.27;13.57;;;4.30;99.90;;;;;;4975477;23;20603;-93
2023/01/26 09:43:34;;;;;;;32.27;13.87;;;4.50;99.90;;;;;;4998338;23;20619;-92
2023/01/26 09:46:01;;;;;;;37.13;14.80;;;4.80;99.90;;;;;;4998573;23;20163;-92
2023/01/26 09:48:21;;;;;;;35.60;13.80;;;4.90;99.90;;;;;;5022638;23;20258;-92
2023/01/26 09:50:29;;;;;;;41.17;14.83;;;5.00;99.90;;;;;;5022178;23;20605;-94
2023/01/26 09:52:36;;;;;;;36.67;14.10;;;5.50;99.90;;;;;;4974898;23;20157;-92
2023/01/26 09:54:49;;;;;;;40.43;15.67;;;5.30;99.90;;;;;;4998560;23;20510;-93
2023/01/26 09:56:49;;;;;;;41.37;15.43;;;5.10;99.90;;;;;;4998169;23;20171;-95
2023/01/26 09:59:30;;;;;;;41.53;15.73;;;5.20;99.90;;;;;;4998197;23;20198;-94
2023/01/26 10:02:12;;;;;;;37.90;14.77;;;4.70;99.90;;;;;;4998317;23;20159;-94
2023/01/26 10:04:35;;;;;;;38.37;14.87;;;4.70;99.90;;;;;;4997949;23;20638;-96
2023/01/26 10:06:37;;;;;;;47.47;16.90;;;5.00;99.90;;;;;;4998073;23;20631;-94
2023/01/26 10:08:45;;;;;;;42.60;16.30;;;5.40;99.90;;;;;;5022201;23;20553;-94
2023/01/26 10:10:56;;;;;;;49.70;17.53;;;5.60;99.90;;;;;;4998274;23;20188;-94
2023/01/26 10:12:58;;;;;;;45.97;16.03;;;5.70;99.90;;;;;;4998174;23;20161;-95
2023/01/26 10:15:17;;;;;;;43.27;15.87;;;5.60;99.90;;;;;;4998440;23;20170;-94
2023/01/26 10:17:32;;;;;;;49.53;16.90;;;5.60;99.90;;;;;;4998936;23;20176;-95
2023/01/26 10:19:44;;;;;;;56.13;17.80;;;5.40;99.90;;;;;;4998154;23;20285;-95
2023/01/26 10:21:47;;;;;;;49.43;17.17;;;5.50;99.90;;;;;;4998297;23;20159;-94
2023/01/26 10:23:51;;;;;;;48.70;17.03;;;5.50;99.90;;;;;;4998716;23;20159;-94
2023/01/26 10:25:55;;;;;;;49.70;16.13;;;5.60;99.90;;;;;;5021906;23;20155;-95
2023/01/26 10:27:56;;;;;;;53.70;17.90;;;5.50;99.90;;;;;;5021373;23;20179;-94
2023/01/26 10:29:56;;;;;;;52.87;17.77;;;5.30;99.90;;;;;;4997861;23;20252;-94
2023/01/26 10:32:00;;;;;;;63.47;18.30;;;5.30;99.90;;;;;;4998130;23;20521;-94
2023/01/26 10:34:13;;;;;;;67.37;18.53;;;5.50;99.90;;;;;;4997911;23;20170;-95
2023/01/26 10:36:14;;;;;;;64.63;19.00;;;5.30;99.90;;;;;;4997740;23;20162;-95
2023/01/26 10:38:34;;;;;;;69.83;20.20;;;5.40;99.90;;;;;;5021422;23;20189;-94
2023/01/26 10:40:44;;;;;;;92.23;21.40;;;5.40;99.90;;;;;;4975776;23;20175;-94
2023/01/26 10:43:16;;;;;;;83.30;21.93;;;5.70;99.90;;;;;;4997771;23;20159;-95
2023/01/26 10:45:35;;;;;;;87.87;23.10;;;5.70;99.90;;;;;;4958154;23;20164;-94
2023/01/26 10:47:36;;;;;;;102.37;25.20;;;5.60;99.90;;;;;;4974523;23;20215;-94
2023/01/26 10:49:37;;;;;;;90.80;23.17;;;5.70;99.90;;;;;;4998742;23;20543;-92
2023/01/26 10:52:03;;;;;;;95.20;24.33;;;5.60;99.90;;;;;;4974277;23;20164;-94
2023/01/26 10:54:14;;;;;;;107.60;25.60;;;5.70;99.90;;;;;;4997995;23;20239;-95
2023/01/26 10:56:16;;;;;;;110.17;24.43;;;5.90;99.90;;;;;;5021581;23;20179;-92
2023/01/26 10:58:51;;;;;;;106.87;25.47;;;5.90;99.90;;;;;;4999919;23;20183;-94
2023/01/26 11:00:59;;;;;;;104.80;25.70;;;5.90;99.90;;;;;;5021600;23;20179;-94
2023/01/26 11:03:12;;;;;;;105.33;25.87;;;6.00;99.90;;;;;;4998142;23;20155;-94
2023/01/26 11:05:20;;;;;;;115.60;27.07;;;6.10;99.90;;;;;;4974123;23;20204;-94
2023/01/26 11:07:30;;;;;;;113.40;25.83;;;6.10;99.90;;;;;;4998862;23;20167;-95
2023/01/26 11:09:31;;;;;;;112.70;27.57;;;6.00;99.90;;;;;;4997809;23;20159;-95
2023/01/26 11:11:36;;;;;;;129.80;27.50;;;5.90;99.90;;;;;;4997787;23;20163;-96
2023/01/26 11:13:36;;;;;;;128.83;29.93;;;6.00;99.90;;;;;;4997881;23;20164;-95
2023/01/26 11:15:44;;;;;;;130.70;27.40;;;5.90;99.90;;;;;;4997688;23;20232;-94
2023/01/26 11:17:52;;;;;;;120.60;28.20;;;5.80;99.90;;;;;;4974252;23;20371;-94
2023/01/26 11:20:21;;;;;;;112.07;26.20;;;5.80;99.90;;;;;;4998256;23;20195;-93
2023/01/26 11:22:32;;;;;;;129.63;26.37;;;5.80;99.90;;;;;;4975151;23;20243;-94
2023/01/26 11:24:51;;;;;;;111.73;27.93;;;5.90;99.90;;;;;;4998201;23;20231;-95
2023/01/26 11:27:04;;;;;;;114.13;26.70;;;5.90;99.90;;;;;;4978613;23;20175;-96
2023/01/26 11:29:41;;;;;;;108.80;26.83;;;6.00;99.90;;;;;;4974037;23;20516;-94
2023/01/26 11:32:01;;;;;;;111.40;26.07;;;6.10;99.90;;;;;;4974100;23;20160;-96
2023/01/26 11:34:27;;;;;;;113.93;26.37;;;6.20;99.90;;;;;;5023032;23;20158;-94
2023/01/26 11:36:47;;;;;;;105.90;25.20;;;6.20;99.90;;;;;;4975380;23;20283;-95
2023/01/26 11:39:05;;;;;;;106.60;26.00;;;6.30;99.90;;;;;;4974406;23;20187;-96
2023/01/26 11:41:27;;;;;;;112.10;26.73;;;6.30;99.90;;;;;;4997841;23;20211;-95
2023/01/26 11:43:47;;;;;;;116.77;26.17;;;6.30;99.90;;;;;;4998109;23;20238;-96
2023/01/26 11:46:10;;;;;;;114.80;25.57;;;6.40;99.90;;;;;;5020484;23;20150;-95
2023/01/26 11:48:23;;;;;;;123.23;26.00;;;6.50;99.90;;;;;;4998120;23;20180;-96
2023/01/26 11:50:34;;;;;;;105.40;23.20;;;6.50;99.90;;;;;;4997888;23;20164;-93
2023/01/26 11:52:53;;;;;;;107.87;23.80;;;6.50;99.90;;;;;;4997516;23;20167;-96
2023/01/26 11:55:03;;;;;;;112.67;24.73;;;6.60;99.90;;;;;;5022927;23;20780;-94
2023/01/26 11:57:27;;;;;;;113.70;22.80;;;6.60;99.90;;;;;;4997148;23;20177;-96
2023/01/26 12:00:12;;;;;;;107.27;22.23;;;6.90;99.90;;;;;;4997458;23;20199;-96
2023/01/26 12:02:32;;;;;;;98.13;21.77;;;7.20;99.90;;;;;;5023398;23;20155;-95
2023/01/26 12:04:44;;;;;;;97.70;20.67;;;7.40;99.90;;;;;;4998494;23;20160;-96
2023/01/26 12:07:20;;;;;;;92.70;19.20;;;7.20;99.90;;;;;;4997625;23;20167;-96
2023/01/26 12:09:33;;;;;;;109.50;21.50;;;7.30;99.90;;;;;;5000060;23;20187;-96
2023/01/26 12:11:43;;;;;;;108.03;21.20;;;7.20;99.90;;;;;;5022297;23;20221;-95
2023/01/26 12:13:46;;;;;;;99.37;20.93;;;7.10;99.90;;;;;;4999437;23;20652;-96
2023/01/26 12:15:55;;;;;;;70.37;14.67;;;7.00;99.90;;;;;;5021160;23;20159;-95
2023/01/26 12:18:14;;;;;;;81.60;15.27;;;7.00;99.90;;;;;;4976789;23;20188;-95
2023/01/26 12:23:44;;;;;;;54.83;9.83;;;7.00;99.90;;;;;;4998044;23;20159;-96
2023/01/26 12:26:14;;;;;;;52.73;9.40;;;6.90;99.90;;;;;;4976435;23;20167;-95
2023/01/26 12:28:39;;;;;;;47.67;9.33;;;6.80;99.90;;;;;;4968429;23;20180;-95
2023/01/26 12:31:05;;;;;;;50.97;8.43;;;6.70;99.90;;;;;;4974337;23;20160;-96
2023/01/26 12:33:18;;;;;;;54.53;9.73;;;6.80;99.90;;;;;;4997231;23;20167;-96
2023/01/26 12:36:25;;;;;;;42.40;7.33;;;6.90;99.90;;;;;;4995877;23;20166;-95
2023/01/26 12:38:50;;;;;;;45.83;8.20;;;7.00;99.90;;;;;;4974381;23;20259;-95
2023/01/26 12:41:28;;;;;;;52.70;8.63;;;6.90;99.90;;;;;;5020987;23;20166;-95
2023/01/26 12:44:26;;;;;;;;;;;;;;;;;;;;;
2023/01/26 12:46:38;;;;;;;51.13;8.50;;;7.00;99.90;;;;;;4999372;23;20159;-96
2023/01/26 12:48:59;;;;;;;40.70;8.33;;;7.20;99.90;;;;;;4999423;23;20176;-94
2023/01/26 12:51:24;;;;;;;59.17;9.70;;;7.30;99.90;;;;;;4975267;23;20164;-96
2023/01/26 12:54:04;;;;;;;40.80;7.27;;;7.40;99.90;;;;;;4976406;23;20168;-95
2023/01/26 12:56:24;;;;;;;64.57;10.33;;;7.50;99.90;;;;;;4974419;23;20164;-95
2023/01/26 12:58:44;;;;;;;41.90;9.23;;;7.50;99.90;;;;;;5000989;23;20202;-95
2023/01/26 13:01:03;;;;;;;34.17;7.83;;;7.50;99.90;;;;;;5022729;23;20188;-94
2023/01/26 13:03:37;;;;;;;46.53;8.93;;;7.40;99.90;;;;;;5024328;23;20683;-96
2023/01/26 13:05:56;;;;;;;43.30;9.00;;;7.50;99.90;;;;;;4975176;23;20152;-96
2023/01/26 13:08:29;;;;;;;49.37;9.17;;;7.60;99.90;;;;;;4999324;23;20183;-96
2023/01/26 13:10:47;;;;;;;50.13;8.47;;;7.80;99.90;;;;;;4998268;23;20179;-94
2023/01/26 13:13:13;;;;;;;46.60;7.87;;;7.90;99.90;;;;;;4998939;23;20247;-96
2023/01/26 13:15:15;;;;;;;43.03;7.73;;;7.90;99.90;;;;;;5024755;23;20167;-95
2023/01/26 13:17:16;;;;;;;40.83;6.77;;;7.90;99.90;;;;;;5022248;23;20518;-96
2023/01/26 13:19:36;;;;;;;44.20;6.90;;;7.90;99.90;;;;;;4999655;23;20263;-95
2023/01/26 13:21:37;;;;;;;29.57;5.53;;;7.90;99.90;;;;;;4994546;23;20195;-95
2023/01/26 13:23:42;;;;;;;28.77;5.67;;;7.90;99.90;;;;;;4975017;23;20155;-94
2023/01/26 13:26:08;;;;;;;34.20;5.27;;;7.80;99.90;;;;;;5022268;23;20180;-93
2023/01/26 13:28:12;;;;;;;31.90;4.47;;;7.70;99.90;;;;;;4998339;23;20176;-95
2023/01/26 13:30:25;;;;;;;34.63;5.10;;;7.70;99.90;;;;;;4998674;23;20187;-94
2023/01/26 13:32:39;;;;;;;29.73;3.87;;;7.80;99.90;;;;;;5022433;23;20226;-95
2023/01/26 13:34:45;;;;;;;22.37;3.93;;;7.80;99.90;;;;;;4974852;23;20188;-95
2023/01/26 13:37:48;;;;;;;25.20;3.70;;;7.80;99.90;;;;;;4998449;23;20183;-94
2023/01/26 13:39:55;;;;;;;19.13;2.47;;;7.70;99.90;;;;;;4950950;23;20196;-94
2023/01/26 13:41:56;;;;;;;15.43;2.03;;;7.60;99.90;;;;;;4927960;24;20157;-94
2023/01/26 13:44:09;;;;;;;15.83;2.03;;;7.50;99.90;;;;;;4905217;24;20205;-95
2023/01/26 13:46:16;;;;;;;14.83;1.47;;;7.50;99.90;;;;;;4975629;23;20215;-94
2023/01/26 13:48:26;;;;;;;27.43;2.80;;;7.60;99.90;;;;;;4974895;23;20568;-94
2023/01/26 13:50:36;;;;;;;16.87;2.00;;;7.60;99.90;;;;;;4974895;23;20160;-95
2023/01/26 13:52:41;;;;;;;20.00;2.73;;;7.60;99.90;;;;;;4977307;23;20246;-94
2023/01/26 13:54:43;;;;;;;16.70;2.13;;;7.60;99.90;;;;;;4999313;23;20147;-94
2023/01/26 13:57:03;;;;;;;15.03;2.27;;;7.60;99.90;;;;;;4998335;23;20212;-95
2023/01/26 13:59:05;;;;;;;25.07;2.10;;;7.70;99.90;;;;;;4997922;23;20183;-94
2023/01/26 14:01:11;;;;;;;16.80;2.40;;;7.80;99.90;;;;;;4999144;23;20177;-93
2023/01/26 14:03:22;;;;;;;22.03;2.23;;;7.70;99.90;;;;;;4998268;23;20152;-94
2023/01/26 14:05:22;;;;;;;21.37;2.23;;;7.60;99.90;;;;;;5023232;23;20191;-92
2023/01/26 14:07:35;;;;;;;22.13;2.07;;;7.60;99.90;;;;;;4997890;23;20179;-94
2023/01/26 14:09:53;;;;;;;21.77;2.30;;;7.60;99.90;;;;;;4997963;23;20669;-94
2023/01/26 14:12:22;;;;;;;15.57;2.40;;;7.70;99.90;;;;;;4998548;23;20155;-94
2023/01/26 14:14:50;;;;;;;19.17;2.03;;;7.70;99.90;;;;;;4962394;23;20166;-93
2023/01/26 14:16:51;;;;;;;19.83;2.03;;;7.70;99.90;;;;;;4974136;23;20622;-94
2023/01/26 14:19:15;;;;;;;17.23;2.43;;;7.70;99.90;;;;;;4997970;23;20194;-94
2023/01/26 14:21:21;;;;;;;14.43;2.23;;;7.80;99.90;;;;;;5021877;23;20159;-93
2023/01/26 14:23:21;;;;;;;17.27;2.40;;;7.80;99.90;;;;;;5022565;23;20151;-94
2023/01/26 14:25:22;;;;;;;18.53;1.83;;;7.80;99.90;;;;;;4975813;23;20691;-93
2023/01/26 14:27:38;;;;;;;17.87;2.37;;;7.80;99.90;;;;;;4998222;23;20172;-93
2023/01/26 14:29:39;;;;;;;19.43;2.07;;;7.90;99.90;;;;;;5021240;23;20163;-94
2023/01/26 14:31:40;;;;;;;16.30;1.70;;;8.00;99.90;;;;;;4975038;23;20156;-95
2023/01/26 14:33:41;;;;;;;18.07;2.23;;;7.90;99.90;;;;;;4998468;23;20257;-94
2023/01/26 14:36:00;;;;;;;16.40;2.43;;;8.00;99.90;;;;;;4998907;23;20156;-94
2023/01/26 14:38:10;;;;;;;17.37;2.30;;;8.00;99.90;;;;;;4998274;23;20182;-94
2023/01/26 14:40:10;;;;;;;20.37;3.07;;;8.00;99.90;;;;;;4998046;23;20191;-94
2023/01/26 14:42:16;;;;;;;17.77;2.30;;;7.90;99.90;;;;;;5021966;23;20230;-93
2023/01/26 14:44:17;;;;;;;19.43;2.40;;;8.00;99.90;;;;;;4977111;23;20160;-93
2023/01/26 14:46:36;;;;;;;24.03;2.60;;;8.10;99.90;;;;;;5000384;23;20272;-94
2023/01/26 14:49:01;;;;;;;16.90;2.30;;;8.10;99.90;;;;;;4999515;23;20207;-93
2023/01/26 14:51:05;;;;;;;20.00;2.77;;;8.20;99.90;;;;;;4998039;23;20238;-94
2023/01/26 14:53:20;;;;;;;21.87;2.33;;;8.20;99.90;;;;;;4975150;23;20618;-94
2023/01/26 14:55:32;;;;;;;19.43;2.60;;;8.20;99.90;;;;;;4976001;23;20164;-95
2023/01/26 14:57:33;;;;;;;15.70;2.30;;;8.10;99.90;;;;;;4974510;23;20267;-94
2023/01/26 14:59:37;;;;;;;20.67;2.70;;;8.20;99.90;;;;;;4997941;23;20193;-94
2023/01/26 15:01:38;;;;;;;22.10;2.83;;;8.30;99.90;;;;;;4974369;23;20213;-94
2023/01/26 15:03:39;;;;;;;19.27;2.93;;;8.30;99.90;;;;;;4997839;23;20148;-94
2023/01/26 15:05:43;;;;;;;24.70;3.30;;;8.40;99.90;;;;;;4977315;23;20640;-94
2023/01/26 15:07:58;;;;;;;26.60;3.20;;;8.40;99.90;;;;;;4997669;23;20262;-94
2023/01/26 15:09:59;;;;;;;23.70;2.77;;;8.40;99.90;;;;;;4997859;23;20151;-94
2023/01/26 15:12:33;;;;;;;21.23;3.60;;;8.40;99.90;;;;;;5021508;23;20160;-94
2023/01/26 15:14:47;;;;;;;23.27;3.43;;;8.30;99.90;;;;;;4997030;23;20166;-94
2023/01/26 15:16:51;;;;;;;22.60;3.23;;;8.30;99.90;;;;;;4998399;23;20159;-95
2023/01/26 15:19:05;;;;;;;15.37;2.53;;;8.30;99.90;;;;;;4997076;23;20207;-95
2023/01/26 15:21:17;;;;;;;22.57;2.70;;;8.40;99.90;;;;;;4997596;23;20156;-94
2023/01/26 15:23:43;;;;;;;25.37;3.30;;;8.40;99.90;;;;;;4997551;23;20159;-94
2023/01/26 15:25:47;;;;;;;25.53;2.90;;;8.50;99.90;;;;;;4974993;23;20164;-95
2023/01/26 15:27:53;;;;;;;29.37;3.17;;;8.50;99.90;;;;;;4974380;23;20176;-94
2023/01/26 15:29:57;;;;;;;26.90;3.13;;;8.50;99.90;;;;;;5021090;23;20162;-94
2023/01/26 15:31:58;;;;;;;21.60;3.20;;;8.50;99.90;;;;;;5021751;23;20163;-95
2023/01/26 15:34:02;;;;;;;18.07;2.83;;;8.40;99.90;;;;;;4974298;23;20160;-95
2023/01/26 15:36:03;;;;;;;18.83;2.50;;;8.30;99.90;;;;;;4974706;23;20615;-92
2023/01/26 15:38:11;;;;;;;24.07;2.60;;;8.30;99.90;;;;;;5023184;23;20170;-92
2023/01/26 15:40:12;;;;;;;32.10;3.80;;;8.40;99.90;;;;;;4999477;23;20199;-95
2023/01/26 15:42:20;;;;;;;17.27;3.20;;;8.40;99.90;;;;;;5021529;23;20151;-93
2023/01/26 15:44:20;;;;;;;21.73;2.70;;;8.30;99.90;;;;;;5021749;23;20188;-94
2023/01/26 15:46:21;;;;;;;17.20;3.07;;;8.30;99.90;;;;;;4974686;23;20522;-92
2023/01/26 15:48:23;;;;;;;31.30;3.10;;;8.40;99.90;;;;;;4997560;23;20643;-92
2023/01/26 15:50:24;;;;;;;21.17;2.93;;;8.60;99.90;;;;;;4998625;23;20151;-92
2023/01/26 15:52:29;;;;;;;24.50;2.97;;;8.50;99.90;;;;;;4974404;23;20189;-93
2023/01/26 15:54:30;;;;;;;18.30;2.83;;;8.20;99.90;;;;;;4997785;23;20160;-93
2023/01/26 15:56:31;;;;;;;18.25;3.05;;;8.10;99.90;;;;;;5021090;23;20178;-93
2023/01/26 15:58:34;;;;;;;17.00;2.90;;;8.10;99.90;;;;;;4973988;23;20247;-92
2023/01/26 16:00:36;;;;;;;18.38;3.00;;;8.00;99.90;;;;;;4976799;23;20267;-92
2023/01/26 16:02:37;;;;;;;20.88;3.20;;;8.00;99.90;;;;;;4998271;23;20162;-92
2023/01/26 16:04:37;;;;;;;25.52;3.63;;;8.10;99.90;;;;;;4997528;23;20156;-94
2023/01/26 16:06:39;;;;;;;17.88;2.83;;;8.10;99.90;;;;;;4974326;23;20684;-92
2023/01/26 16:08:39;;;;;;;22.10;2.80;;;8.10;99.90;;;;;;5021127;23;20186;-92
2023/01/26 16:10:40;;;;;;;24.42;3.00;;;8.40;99.90;;;;;;4973864;23;20208;-93
2023/01/26 16:12:41;;;;;;;17.63;2.50;;;8.40;99.90;;;;;;5021026;23;20154;-93
2023/01/26 16:14:42;;;;;;;16.37;2.83;;;8.60;99.90;;;;;;4997307;23;20657;-92
2023/01/26 16:16:43;;;;;;;25.87;2.90;;;8.80;99.90;;;;;;4997415;23;20163;-93
2023/01/26 16:18:44;;;;;;;17.27;2.87;;;8.70;99.90;;;;;;4973633;23;20215;-92
2023/01/26 16:20:46;;;;;;;20.50;3.20;;;8.70;99.90;;;;;;4973958;23;20215;-92
2023/01/26 16:22:47;;;;;;;18.53;3.10;;;8.60;99.90;;;;;;5022756;23;20158;-94
2023/01/26 16:24:48;;;;;;;20.03;2.60;;;8.50;99.90;;;;;;4973706;23;20172;-94
2023/01/26 16:26:48;;;;;;;22.70;2.87;;;8.40;99.90;;;;;;4997831;23;20179;-95
2023/01/26 16:28:49;;;;;;;20.63;3.27;;;8.30;99.90;;;;;;4973684;23;20176;-93
2023/01/26 16:30:50;;;;;;;14.40;3.00;;;8.30;99.90;;;;;;5020736;23;20150;-94
2023/01/26 16:32:54;;;;;;;20.63;3.00;;;8.10;99.90;;;;;;4997852;23;20159;-92
2023/01/26 16:34:55;;;;;;;15.00;2.43;;;8.10;99.90;;;;;;4973858;23;20180;-95
2023/01/26 16:36:56;;;;;;;17.20;2.60;;;8.10;99.90;;;;;;5021186;23;20187;-95
2023/01/26 16:38:57;;;;;;;13.80;2.00;;;7.90;99.90;;;;;;4997380;23;20187;-95
2023/01/26 16:40:57;;;;;;;20.40;2.63;;;7.90;99.90;;;;;;4997157;23;20172;-94
2023/01/26 16:43:00;;;;;;;16.90;2.70;;;7.90;99.90;;;;;;4973684;23;20157;-94
2023/01/26 16:45:01;;;;;;;20.60;3.00;;;7.90;99.90;;;;;;4973586;23;20161;-93
2023/01/26 16:47:04;;;;;;;16.40;2.43;;;7.90;99.90;;;;;;4999308;23;20167;-94
2023/01/26 16:49:05;;;;;;;14.23;2.47;;;7.90;99.90;;;;;;4997751;23;20159;-94
2023/01/26 16:51:17;;;;;;;24.50;2.90;;;8.10;99.90;;;;;;4997261;23;20198;-94
2023/01/26 16:53:34;;;;;;;20.00;2.27;;;8.20;99.90;;;;;;5020955;23;20165;-93
2023/01/26 16:55:35;;;;;;;20.33;3.03;;;8.00;99.90;;;;;;4979341;23;20141;-94
2023/01/26 16:57:41;;;;;;;19.37;3.10;;;7.90;99.90;;;;;;5003978;23;20222;-92
2023/01/26 16:59:42;;;;;;;23.30;2.70;;;7.90;99.90;;;;;;4999052;23;20218;-92
2023/01/26 17:01:45;;;;;;;17.42;2.67;;;7.80;99.90;;;;;;5000450;23;20171;-93
2023/01/26 17:03:51;;;;;;;15.57;2.87;;;7.70;99.90;;;;;;4998694;23;20160;-93
2023/01/26 17:05:55;;;;;;;19.60;3.13;;;7.80;99.90;;;;;;5025156;23;20615;-94
2023/01/26 17:07:56;;;;;;;15.77;3.10;;;8.00;99.90;;;;;;4999436;23;20179;-92
2023/01/26 17:09:56;;;;;;;27.10;3.27;;;7.90;99.90;;;;;;4976656;23;20167;-94
2023/01/26 17:11:57;;;;;;;18.63;2.77;;;7.90;99.90;;;;;;5003687;23;20604;-93
2023/01/26 17:13:59;;;;;;;20.63;3.03;;;8.10;99.90;;;;;;5002114;23;20279;-95
2023/01/26 17:16:21;;;;;;;16.50;2.47;;;8.10;99.90;;;;;;4999138;23;20147;-95
2023/01/26 17:18:26;;;;;;;25.50;2.70;;;8.10;99.90;;;;;;4998826;23;20186;-95
2023/01/26 17:20:30;;;;;;;24.00;2.83;;;8.10;99.90;;;;;;5023830;23;20195;-94
2023/01/26 17:22:31;;;;;;;17.67;2.53;;;8.10;99.90;;;;;;4978723;23;20186;-93
2023/01/26 17:24:32;;;;;;;18.50;3.20;;;8.10;99.90;;;;;;4999139;23;20187;-93
2023/01/26 17:26:33;;;;;;;16.87;2.70;;;7.80;99.90;;;;;;5000236;23;20168;-94
2023/01/26 17:28:36;;;;;;;25.80;2.90;;;7.70;99.90;;;;;;5000671;23;20658;-93
2023/01/26 17:30:39;;;;;;;17.90;2.40;;;7.70;99.90;;;;;;5000266;23;20612;-93
2023/01/26 17:32:42;;;;;;;17.37;2.90;;;8.10;99.90;;;;;;5000505;23;20159;-92
2023/01/26 17:34:51;;;;;;;17.13;2.47;;;8.00;99.90;;;;;;5003358;23;20156;-93
2023/01/26 17:36:58;;;;;;;20.13;2.40;;;8.00;99.90;;;;;;5002479;23;20199;-96
2023/01/26 17:38:59;;;;;;;11.57;2.10;;;7.90;99.90;;;;;;4976319;23;20176;-95
2023/01/26 17:41:01;;;;;;;13.13;2.17;;;7.90;99.90;;;;;;4977819;23;20164;-95
2023/01/26 17:43:03;;;;;;;20.63;3.00;;;7.90;99.90;;;;;;5000694;23;20220;-96
2023/01/26 17:45:04;;;;;;;21.23;2.83;;;8.00;99.90;;;;;;5001420;23;20167;-94
2023/01/26 17:47:08;;;;;;;14.43;2.30;;;7.90;99.90;;;;;;5001898;23;20164;-93
2023/01/26 17:49:12;;;;;;;18.57;3.30;;;7.90;99.90;;;;;;5005310;23;20171;-94
2023/01/26 17:51:16;;;;;;;14.93;2.03;;;7.90;99.90;;;;;;5027117;23;20163;-95
2023/01/26 17:53:17;;;;;;;25.10;4.07;;;7.70;99.90;;;;;;5002375;23;20160;-96
2023/01/26 17:55:20;;;;;;;22.63;2.93;;;7.60;99.90;;;;;;4976987;23;20266;-95
2023/01/26 17:57:21;;;;;;;20.87;3.07;;;7.60;99.90;;;;;;5000906;23;20218;-93
2023/01/26 17:59:21;;;;;;;18.90;2.27;;;7.60;99.90;;;;;;4979281;23;20168;-93
2023/01/26 18:01:25;;;;;;;17.40;2.93;;;7.50;99.90;;;;;;4999208;23;20224;-93
2023/01/26 18:03:27;;;;;;;15.97;2.80;;;7.50;99.90;;;;;;5024733;23;20494;-95
2023/01/26 18:05:35;;;;;;;21.13;2.93;;;7.50;99.90;;;;;;5002401;23;20178;-95
2023/01/26 18:07:36;;;;;;;14.70;3.03;;;7.60;99.90;;;;;;4983577;23;20175;-94
2023/01/26 18:09:37;;;;;;;10.17;2.10;;;7.60;99.90;;;;;;5026456;23;20147;-96
2023/01/26 18:11:43;;;;;;;19.73;3.23;;;7.60;99.90;;;;;;5001846;23;20156;-92
2023/01/26 18:13:49;;;;;;;17.00;3.30;;;7.50;99.90;;;;;;5024319;23;20208;-94
2023/01/26 18:16:21;;;;;;;17.30;2.60;;;7.50;99.90;;;;;;4989443;23;20168;-96
2023/01/26 18:18:27;;;;;;;13.40;2.43;;;7.50;99.90;;;;;;5002611;23;20312;-94
2023/01/26 18:20:31;;;;;;;19.17;2.70;;;7.60;99.90;;;;;;5002662;23;20202;-93
2023/01/26 18:22:32;;;;;;;17.87;3.00;;;7.50;99.90;;;;;;5003797;23;20183;-92
2023/01/26 18:24:33;;;;;;;20.00;2.53;;;7.60;99.90;;;;;;5025343;23;20171;-93
2023/01/26 18:26:48;;;;;;;19.80;2.97;;;7.50;99.90;;;;;;5001912;23;20195;-95
2023/01/26 18:29:07;;;;;;;22.70;2.77;;;7.50;99.90;;;;;;4982586;23;20157;-94
2023/01/26 18:31:14;;;;;;;19.97;3.10;;;7.50;99.90;;;;;;4980030;23;20159;-94
2023/01/26 18:33:16;;;;;;;14.40;3.03;;;7.40;99.90;;;;;;5000205;23;20198;-93
2023/01/26 18:35:21;;;;;;;17.60;3.23;;;7.40;99.90;;;;;;5006970;23;20163;-93
2023/01/26 18:37:22;;;;;;;12.57;2.37;;;7.30;99.90;;;;;;5024373;23;20179;-95
2023/01/26 18:39:22;;;;;;;18.67;3.23;;;7.30;99.90;;;;;;4999308;23;20266;-95
2023/01/26 18:41:25;;;;;;;14.47;2.80;;;7.20;99.90;;;;;;4981076;23;20628;-95
2023/01/26 18:43:31;;;;;;;14.27;2.00;;;7.10;99.90;;;;;;5027804;23;20226;-96
2023/01/26 18:45:36;;;;;;;12.83;2.17;;;7.10;99.90;;;;;;4977245;23;20524;-92
2023/01/26 18:47:42;;;;;;;11.77;2.67;;;7.10;99.90;;;;;;5002516;23;20247;-95
2023/01/26 18:49:45;;;;;;;24.73;4.13;;;7.10;99.90;;;;;;5000531;23;20160;-95
2023/01/26 18:51:50;;;;;;;15.47;2.87;;;7.00;99.90;;;;;;5000054;23;20215;-96
2023/01/26 18:54:08;;;;;;;11.83;2.10;;;7.00;99.90;;;;;;4999127;23;20196;-95
2023/01/26 18:56:16;;;;;;;8.97;2.20;;;7.10;99.90;;;;;;4979058;23;20176;-95
2023/01/26 18:58:17;;;;;;;17.90;2.90;;;7.00;99.90;;;;;;5006899;23;20184;-95
2023/01/26 19:00:20;;;;;;;12.40;2.30;;;7.00;99.90;;;;;;5004595;23;20199;-96